San Antonio Oeste, Argentina
Current Conditions -  °F | °C
As of 9:00 PM on Tuesday 21 Oct 2014 (Local Time) from SAZN Reporting Station
Clear Clear  
Wind Chill: 79°   Ceiling: Unl
Heat Index: 79°   Visibility: 6mi
Dew Point: 54°   Wind: 2mph
Humidity: 42%   Direction: 250°WSW
Pressure: 29.8"   Gusts: NA
Location:  40.74°S, 64.95°W
Report Text: SAZN 220000Z 25002KT CAVOK 26/12 Q1009
Loading
Personal Weather Stations






























Interactive Weather Map New forecast layout! Learn more

10-Day Weather Forecast

Advertisements
Track Severe Weather on mobile